Time;durP1;ratioP1;P1;durP2;ratioP2;P2;SDS_P1;SDS_P2;PMS_P1;PMS_P2;Temp;Humidity;BMP_temperature;BMP_pressure;BME280_temperature;BME280_humidity;BME280_pressure;Samples;Min_cycle;Max_cycle;Signal;HPM_P1;HPM_P2
2022/08/05 00:00:29;;;;;;;4.87;2.80;;;17.50;78.20;;;;;;5056854;28;20395;-66
2022/08/05 00:02:54;;;;;;;7.43;3.03;;;17.50;78.10;;;;;;5047528;28;20074;-66
2022/08/05 00:05:21;;;;;;;4.27;2.50;;;17.50;78.50;;;;;;5059900;28;20040;-66
2022/08/05 00:07:46;;;;;;;5.93;2.33;;;17.50;78.20;;;;;;5064200;28;20055;-66
2022/08/05 00:10:12;;;;;;;5.60;2.40;;;17.50;78.10;;;;;;5046699;28;20305;-66
2022/08/05 00:12:38;;;;;;;5.97;2.90;;;17.50;77.90;;;;;;5063230;28;20032;-66
2022/08/05 00:15:05;;;;;;;5.80;2.30;;;17.40;78.20;;;;;;5061334;28;21055;-66
2022/08/05 00:17:30;;;;;;;4.93;2.30;;;17.40;77.90;;;;;;5045523;28;20048;-66
2022/08/05 00:19:56;;;;;;;5.00;2.17;;;17.40;77.90;;;;;;5047318;28;20826;-66
2022/08/05 00:22:22;;;;;;;5.37;2.93;;;17.40;78.00;;;;;;5061500;28;20109;-66
2022/08/05 00:24:47;;;;;;;4.70;2.50;;;17.40;77.90;;;;;;5046663;28;20382;-66
2022/08/05 00:27:13;;;;;;;6.07;2.70;;;17.30;78.00;;;;;;5047033;28;20032;-66
2022/08/05 00:29:39;;;;;;;5.00;2.73;;;17.30;78.20;;;;;;5046489;28;20032;-66
2022/08/05 00:32:05;;;;;;;6.17;2.40;;;17.30;78.20;;;;;;5063025;28;20487;-66
2022/08/05 00:34:31;;;;;;;6.53;2.30;;;17.30;78.50;;;;;;5063092;28;20044;-66
2022/08/05 00:36:57;;;;;;;3.60;2.00;;;17.30;78.50;;;;;;5062070;28;20295;-66
2022/08/05 00:39:22;;;;;;;4.77;2.40;;;17.30;78.80;;;;;;5061955;28;20131;-66
2022/08/05 00:41:48;;;;;;;3.90;2.23;;;17.30;78.70;;;;;;5047199;28;20083;-66
2022/08/05 00:44:14;;;;;;;4.50;1.90;;;17.30;78.70;;;;;;5062099;28;20110;-66
2022/08/05 00:46:40;;;;;;;5.07;2.40;;;17.30;78.50;;;;;;5046416;28;20123;-66
2022/08/05 00:49:05;;;;;;;5.03;2.07;;;17.30;78.90;;;;;;5064498;28;20036;-66
2022/08/05 00:51:31;;;;;;;4.13;2.20;;;17.30;79.10;;;;;;5062939;28;20033;-66
2022/08/05 00:53:57;;;;;;;5.60;2.43;;;17.30;79.00;;;;;;5059716;28;20518;-66
2022/08/05 00:56:22;;;;;;;4.87;2.93;;;17.30;79.20;;;;;;5057803;28;20044;-66
2022/08/05 00:58:48;;;;;;;5.23;3.27;;;17.30;79.30;;;;;;5059941;28;20076;-66
2022/08/05 01:01:14;;;;;;;4.63;3.03;;;17.20;79.90;;;;;;5061451;28;20075;-66
2022/08/05 01:03:41;;;;;;;3.77;3.03;;;17.20;80.10;;;;;;5060787;28;20153;-66
2022/08/05 01:06:07;;;;;;;4.33;3.30;;;17.20;80.30;;;;;;5061710;28;20044;-66
2022/08/05 01:08:34;;;;;;;6.47;2.87;;;17.20;80.10;;;;;;5063606;28;20368;-66
2022/08/05 01:11:08;;;;;;;7.27;3.40;;;17.20;80.00;;;;;;5046962;28;20306;-65
2022/08/05 01:13:50;;;;;;;5.88;3.50;;;17.20;80.10;;;;;;5065233;28;20321;-66
2022/08/05 01:16:50;;;;;;;4.43;2.90;;;17.20;79.90;;;;;;5049192;28;20041;-66
2022/08/05 01:19:32;;;;;;;5.47;4.00;;;17.20;80.00;;;;;;5064744;28;20286;-65
2022/08/05 01:22:09;;;;;;;4.40;3.63;;;17.10;80.50;;;;;;5048933;28;20290;-66
2022/08/05 01:25:11;;;;;;;8.93;4.10;;;17.10;80.70;;;;;;5045533;28;20303;-66
2022/08/05 01:28:06;;;;;;;5.20;4.10;;;17.10;80.40;;;;;;5063165;28;20282;-66
2022/08/05 01:30:38;;;;;;;6.18;3.83;;;17.10;80.50;;;;;;5013214;28;20300;-66
2022/08/05 01:33:08;;;;;;;6.00;3.77;;;17.00;80.50;;;;;;5067006;28;20055;-66
2022/08/05 01:35:38;;;;;;;4.07;3.67;;;17.00;80.40;;;;;;5066138;28;20282;-66
2022/08/05 01:38:05;;;;;;;3.97;3.67;;;17.00;80.50;;;;;;5065332;28;20794;-65
2022/08/05 01:40:32;;;;;;;4.30;3.47;;;16.90;80.60;;;;;;5061452;28;20291;-66
2022/08/05 01:43:01;;;;;;;4.97;3.67;;;16.90;80.80;;;;;;5066925;28;20283;-66
2022/08/05 01:45:29;;;;;;;6.27;3.50;;;16.80;81.00;;;;;;5062996;28;20385;-66
2022/08/05 01:47:58;;;;;;;7.57;3.50;;;16.70;81.00;;;;;;5064983;28;20286;-66
2022/08/05 01:50:27;;;;;;;5.97;3.37;;;16.70;81.40;;;;;;5065003;28;20287;-66
2022/08/05 01:53:00;;;;;;;6.70;4.30;;;16.60;81.60;;;;;;5065194;28;20809;-65
2022/08/05 01:55:29;;;;;;;5.30;3.90;;;16.60;81.50;;;;;;5064733;28;20295;-66
2022/08/05 01:57:57;;;;;;;5.97;4.10;;;16.60;81.60;;;;;;5046421;28;20287;-66
2022/08/05 02:00:25;;;;;;;5.67;3.80;;;16.50;81.90;;;;;;5064145;28;20552;-66
2022/08/05 02:03:02;;;;;;;5.93;3.87;;;16.50;81.90;;;;;;5082426;28;20330;-66
2022/08/05 02:05:33;;;;;;;4.37;3.53;;;16.50;82.00;;;;;;5064760;28;20824;-65
2022/08/05 02:07:59;;;;;;;5.07;3.77;;;16.40;82.10;;;;;;5064734;28;20291;-66
2022/08/05 02:10:27;;;;;;;5.47;3.63;;;16.40;81.80;;;;;;5065202;28;20291;-66
2022/08/05 02:12:59;;;;;;;6.57;4.43;;;16.40;82.10;;;;;;5066328;28;20278;-65
2022/08/05 02:15:27;;;;;;;4.13;3.60;;;16.30;82.20;;;;;;5065752;28;20377;-65
2022/08/05 02:18:30;;;;;;;5.87;3.40;;;16.30;82.10;;;;;;5065445;28;20298;-66
2022/08/05 02:21:19;;;;;;;8.30;3.57;;;16.20;82.20;;;;;;5058960;28;20291;-66
2022/08/05 02:23:50;;;;;;;4.40;3.57;;;16.20;82.30;;;;;;5061385;28;20345;-66
2022/08/05 02:26:22;;;;;;;6.87;3.90;;;16.20;82.60;;;;;;5065726;28;21069;-66
2022/08/05 02:28:48;;;;;;;5.93;3.90;;;16.10;82.90;;;;;;5058564;28;20305;-66
2022/08/05 02:31:19;;;;;;;5.17;4.00;;;16.10;83.00;;;;;;5080217;28;20294;-66
2022/08/05 02:33:56;;;;;;;6.63;4.23;;;16.00;83.10;;;;;;5065450;28;20647;-65
2022/08/05 02:36:24;;;;;;;6.10;4.00;;;15.90;83.50;;;;;;5065915;28;21215;-66
2022/08/05 02:38:53;;;;;;;5.90;4.73;;;15.90;83.50;;;;;;5065068;28;20445;-66
2022/08/05 02:41:21;;;;;;;7.17;4.13;;;15.90;83.70;;;;;;5063488;28;21854;-66
2022/08/05 02:43:49;;;;;;;7.00;4.30;;;15.90;83.80;;;;;;5063948;28;20297;-66
2022/08/05 02:46:16;;;;;;;5.87;4.70;;;15.80;84.50;;;;;;5065253;28;20751;-66
2022/08/05 02:48:44;;;;;;;7.07;4.60;;;15.80;84.70;;;;;;5062275;28;20287;-65
2022/08/05 02:51:12;;;;;;;8.27;5.47;;;15.80;84.80;;;;;;5063038;28;20336;-66
2022/08/05 02:53:38;;;;;;;7.60;4.87;;;15.80;85.30;;;;;;5059279;28;20305;-66
2022/08/05 02:56:05;;;;;;;6.17;5.07;;;15.80;84.90;;;;;;5048030;28;20294;-66
2022/08/05 02:58:32;;;;;;;7.60;5.00;;;15.80;84.80;;;;;;5062577;28;20348;-66
2022/08/05 03:01:01;;;;;;;7.20;4.70;;;15.80;85.10;;;;;;5063380;28;20291;-65
2022/08/05 03:03:29;;;;;;;9.33;4.80;;;15.80;85.30;;;;;;5061264;28;20286;-66
2022/08/05 03:05:56;;;;;;;9.30;4.53;;;15.80;85.30;;;;;;5060406;28;20389;-66
2022/08/05 03:08:23;;;;;;;6.00;3.97;;;15.80;85.00;;;;;;5046556;28;20376;-65
2022/08/05 03:10:49;;;;;;;6.23;4.30;;;15.80;84.80;;;;;;5062155;28;20317;-65
2022/08/05 03:13:16;;;;;;;5.17;3.63;;;15.80;84.70;;;;;;5064929;28;20283;-66
2022/08/05 03:15:46;;;;;;;8.07;4.47;;;15.80;84.60;;;;;;5075416;28;20301;-66
2022/08/05 03:18:13;;;;;;;6.53;4.37;;;15.80;84.50;;;;;;5059650;28;20279;-66
2022/08/05 03:20:39;;;;;;;6.60;4.70;;;15.80;84.40;;;;;;5063973;28;20298;-66
2022/08/05 03:23:06;;;;;;;6.90;4.27;;;15.70;84.50;;;;;;5064640;28;20278;-66
2022/08/05 03:25:34;;;;;;;5.40;4.17;;;15.70;84.70;;;;;;5063663;28;20388;-66
2022/08/05 03:28:03;;;;;;;6.20;4.03;;;15.70;84.50;;;;;;5059701;28;20608;-65
2022/08/05 03:30:33;;;;;;;5.97;4.00;;;15.70;84.30;;;;;;5041510;28;20381;-66
2022/08/05 03:33:03;;;;;;;6.80;3.97;;;15.70;84.50;;;;;;5054887;28;20307;-65
2022/08/05 03:35:31;;;;;;;7.40;4.30;;;15.70;84.30;;;;;;5055127;28;20386;-66
2022/08/05 03:38:01;;;;;;;7.23;4.60;;;15.70;84.20;;;;;;5062887;28;20858;-64
2022/08/05 03:40:28;;;;;;;5.77;4.03;;;15.70;84.10;;;;;;5045366;28;20286;-64
2022/08/05 03:42:53;;;;;;;4.90;4.07;;;15.80;84.20;;;;;;5058337;28;20314;-64
2022/08/05 03:45:19;;;;;;;7.13;4.57;;;15.80;84.00;;;;;;5063718;28;20861;-64
2022/08/05 03:47:45;;;;;;;6.93;4.07;;;15.80;84.20;;;;;;5063592;28;20032;-64
2022/08/05 03:50:11;;;;;;;5.73;4.33;;;15.80;84.30;;;;;;5064640;28;20336;-64
2022/08/05 03:52:49;;;;;;;5.73;4.43;;;15.80;84.50;;;;;;5047258;28;20437;-63
2022/08/05 03:55:22;;;;;;;7.40;4.87;;;15.80;84.40;;;;;;5063425;28;20313;-63
2022/08/05 03:57:51;;;;;;;4.90;4.37;;;15.70;84.60;;;;;;5046593;28;20720;-64
2022/08/05 04:00:24;;;;;;;6.97;4.30;;;15.70;84.60;;;;;;5055358;28;20279;-63
2022/08/05 04:02:53;;;;;;;6.47;4.73;;;15.70;84.30;;;;;;5061862;28;20847;-64
2022/08/05 04:05:19;;;;;;;7.37;4.77;;;15.70;84.50;;;;;;5063383;28;21025;-64
2022/08/05 04:07:46;;;;;;;8.57;4.97;;;15.70;84.70;;;;;;5047323;28;20321;-64
2022/08/05 04:10:12;;;;;;;5.73;4.50;;;15.70;84.80;;;;;;5067958;28;20294;-64
2022/08/05 04:12:37;;;;;;;5.93;4.50;;;15.60;84.80;;;;;;5062121;28;20817;-64
2022/08/05 04:15:04;;;;;;;6.27;4.90;;;15.60;84.70;;;;;;5045100;28;20152;-64
2022/08/05 04:17:32;;;;;;;8.30;5.17;;;15.70;84.80;;;;;;5063967;28;20109;-64
2022/08/05 04:19:58;;;;;;;8.10;4.57;;;15.70;85.20;;;;;;5064136;28;20385;-64
2022/08/05 04:22:23;;;;;;;7.40;4.73;;;15.60;85.00;;;;;;5043523;28;20390;-64
2022/08/05 04:24:49;;;;;;;8.73;4.87;;;15.60;85.20;;;;;;5063292;28;20404;-64
2022/08/05 04:27:15;;;;;;;5.93;4.50;;;15.60;84.90;;;;;;5047128;28;20064;-63
2022/08/05 04:29:41;;;;;;;6.03;4.70;;;15.60;85.00;;;;;;5061736;28;20333;-64
2022/08/05 04:32:08;;;;;;;5.70;4.17;;;15.60;85.10;;;;;;5062265;28;20107;-64
2022/08/05 04:34:34;;;;;;;7.17;3.90;;;15.60;85.10;;;;;;5063888;28;20738;-64
2022/08/05 04:37:00;;;;;;;6.33;4.07;;;15.60;85.00;;;;;;5063063;28;20287;-64
2022/08/05 04:39:26;;;;;;;5.03;3.80;;;15.60;85.00;;;;;;5063948;28;20033;-64
2022/08/05 04:41:51;;;;;;;4.30;3.30;;;15.60;84.90;;;;;;5062711;28;20717;-64
2022/08/05 04:44:18;;;;;;;4.73;3.60;;;15.70;84.70;;;;;;5063206;28;20045;-64
2022/08/05 04:46:44;;;;;;;5.03;3.43;;;15.70;84.50;;;;;;5063734;28;20028;-64
2022/08/05 04:49:09;;;;;;;5.80;3.67;;;15.70;84.30;;;;;;5068451;28;21197;-64
2022/08/05 04:51:35;;;;;;;5.87;3.63;;;15.80;84.30;;;;;;5064536;28;20125;-64
2022/08/05 04:54:01;;;;;;;4.10;3.43;;;15.80;84.20;;;;;;5050803;28;20131;-64
2022/08/05 04:56:27;;;;;;;5.10;3.53;;;15.90;84.10;;;;;;5065894;28;20500;-63
2022/08/05 04:58:52;;;;;;;3.87;3.20;;;15.90;84.30;;;;;;5061200;28;20082;-63
2022/08/05 05:01:18;;;;;;;3.73;2.60;;;16.00;84.10;;;;;;5067551;28;20047;-64
2022/08/05 05:03:44;;;;;;;4.37;2.80;;;16.00;84.00;;;;;;5068430;28;20032;-64
2022/08/05 05:06:13;;;;;;;7.77;2.73;;;16.10;83.70;;;;;;5047866;28;20094;-64
2022/08/05 05:08:39;;;;;;;4.13;2.83;;;16.20;83.50;;;;;;5048937;28;20554;-64
2022/08/05 05:11:05;;;;;;;2.63;2.07;;;16.20;83.20;;;;;;5067388;28;20295;-64
2022/08/05 05:13:31;;;;;;;4.17;2.07;;;16.30;83.10;;;;;;5049724;28;20285;-64
2022/08/05 05:15:57;;;;;;;4.53;2.70;;;16.30;82.90;;;;;;5063791;28;20294;-64
2022/08/05 05:18:23;;;;;;;2.60;2.20;;;16.30;82.70;;;;;;5065480;28;20131;-64
2022/08/05 05:20:49;;;;;;;2.87;2.20;;;16.30;82.50;;;;;;5050474;28;20389;-64
2022/08/05 05:23:15;;;;;;;5.17;2.67;;;16.30;82.50;;;;;;5047722;28;20305;-64
2022/08/05 05:25:42;;;;;;;5.03;3.10;;;16.30;82.40;;;;;;5066146;28;20036;-64
2022/08/05 05:28:09;;;;;;;5.80;3.93;;;16.30;82.60;;;;;;5050469;28;20293;-66
2022/08/05 05:30:35;;;;;;;4.03;3.30;;;16.30;82.70;;;;;;5082364;28;20334;-66
2022/08/05 05:33:03;;;;;;;4.50;3.57;;;16.40;82.90;;;;;;5066367;28;20648;-66
2022/08/05 05:35:30;;;;;;;5.50;3.73;;;16.60;82.60;;;;;;5066213;28;20045;-66
2022/08/05 05:38:01;;;;;;;7.17;4.10;;;16.70;82.80;;;;;;5061032;28;20476;-66
2022/08/05 05:40:29;;;;;;;7.90;5.00;;;16.80;82.70;;;;;;5066470;28;20294;-66
2022/08/05 05:42:55;;;;;;;5.90;4.20;;;16.90;82.50;;;;;;5076052;28;20289;-66
2022/08/05 05:45:21;;;;;;;7.00;4.23;;;16.90;82.30;;;;;;5064598;28;20302;-66
2022/08/05 05:47:47;;;;;;;4.63;3.73;;;17.00;82.10;;;;;;5066063;28;20047;-66
2022/08/05 05:50:15;;;;;;;6.30;4.47;;;17.00;82.20;;;;;;5066099;28;20261;-66
2022/08/05 05:52:41;;;;;;;5.50;4.17;;;17.10;82.00;;;;;;5065703;28;20791;-66
2022/08/05 05:55:10;;;;;;;6.10;4.20;;;17.00;82.10;;;;;;5047894;28;20439;-66
2022/08/05 05:57:40;;;;;;;4.30;3.60;;;17.10;82.30;;;;;;5062536;28;20291;-66
2022/08/05 06:00:09;;;;;;;5.77;3.60;;;17.10;82.00;;;;;;5064019;28;20801;-66
2022/08/05 06:02:35;;;;;;;4.30;2.90;;;17.10;82.10;;;;;;5065531;28;20283;-66
2022/08/05 06:05:00;;;;;;;5.10;3.30;;;17.10;82.20;;;;;;5064281;28;20317;-66
2022/08/05 06:07:26;;;;;;;7.07;2.97;;;17.30;82.10;;;;;;5059883;28;20737;-66
2022/08/05 06:09:52;;;;;;;4.27;2.60;;;17.40;81.70;;;;;;5061785;28;20029;-66
2022/08/05 06:12:18;;;;;;;4.80;2.47;;;17.50;81.40;;;;;;5066878;28;20290;-66
2022/08/05 06:14:44;;;;;;;5.10;2.90;;;17.60;81.10;;;;;;5066306;28;20044;-66
2022/08/05 06:17:10;;;;;;;4.80;2.80;;;17.70;80.80;;;;;;5046797;28;20245;-66
2022/08/05 06:19:36;;;;;;;3.43;2.57;;;17.90;80.70;;;;;;5081769;28;20484;-66
2022/08/05 06:22:03;;;;;;;4.03;2.90;;;18.00;80.00;;;;;;5064192;28;20293;-66
2022/08/05 06:24:28;;;;;;;4.00;2.90;;;18.10;79.80;;;;;;5061197;28;20045;-66
2022/08/05 06:26:54;;;;;;;4.50;2.90;;;18.30;79.60;;;;;;5060269;28;20824;-66
2022/08/05 06:29:20;;;;;;;3.43;2.37;;;18.50;79.40;;;;;;5046460;28;20032;-66
2022/08/05 06:31:46;;;;;;;3.40;2.10;;;18.60;78.80;;;;;;5063465;28;20055;-66
2022/08/05 06:34:12;;;;;;;3.47;1.63;;;18.80;78.00;;;;;;5066586;28;20052;-66
2022/08/05 06:36:37;;;;;;;4.00;1.53;;;19.30;76.90;;;;;;5048281;28;20048;-66
2022/08/05 06:39:03;;;;;;;3.13;1.60;;;19.80;74.70;;;;;;5064907;28;20049;-66
2022/08/05 06:41:29;;;;;;;3.30;0.97;;;20.40;73.00;;;;;;5059033;28;20037;-66
2022/08/05 06:43:54;;;;;;;1.80;0.67;;;21.10;70.30;;;;;;5047916;28;20047;-66
2022/08/05 06:46:20;;;;;;;1.60;0.57;;;21.80;67.90;;;;;;5065516;28;20041;-66
2022/08/05 06:48:46;;;;;;;2.83;0.70;;;22.20;64.90;;;;;;5048113;28;20339;-66
2022/08/05 06:51:11;;;;;;;2.27;0.63;;;22.50;63.30;;;;;;5064776;28;20028;-66
2022/08/05 06:53:37;;;;;;;4.03;0.70;;;22.70;63.00;;;;;;5047133;28;20029;-67
2022/08/05 06:56:03;;;;;;;1.63;0.40;;;22.80;62.70;;;;;;5046992;28;20143;-66
2022/08/05 06:58:29;;;;;;;2.73;0.30;;;22.80;61.50;;;;;;5062884;28;20378;-67
2022/08/05 07:00:59;;;;;;;3.60;0.50;;;22.20;62.90;;;;;;5046441;28;20445;-67
2022/08/05 07:03:25;;;;;;;2.23;0.57;;;21.90;62.90;;;;;;5063926;28;20070;-67
2022/08/05 07:05:51;;;;;;;1.23;0.20;;;21.30;63.90;;;;;;5063126;28;20089;-67
2022/08/05 07:08:17;;;;;;;1.70;0.30;;;20.70;65.50;;;;;;5059002;28;20036;-67
2022/08/05 07:10:42;;;;;;;2.03;0.30;;;20.40;66.60;;;;;;5061789;28;20413;-66
2022/08/05 07:18:36;;;;;;;3.57;0.30;;;19.80;68.50;;;;;;5072451;28;20709;-66
2022/08/05 07:21:02;;;;;;;2.60;0.30;;;19.60;68.60;;;;;;5038110;28;20076;-66
2022/08/05 07:23:28;;;;;;;2.70;0.50;;;19.60;68.30;;;;;;5043258;28;20041;-66
2022/08/05 07:25:53;;;;;;;1.77;0.30;;;19.60;68.10;;;;;;5056659;28;20075;-66
2022/08/05 07:28:19;;;;;;;2.93;0.33;;;19.60;68.60;;;;;;5054214;28;20039;-66
2022/08/05 07:30:45;;;;;;;2.77;0.33;;;19.70;69.10;;;;;;5056425;28;20071;-67
2022/08/05 07:33:11;;;;;;;3.03;0.30;;;19.70;68.20;;;;;;5051318;28;20465;-66
2022/08/05 07:35:38;;;;;;;2.80;0.40;;;19.60;68.50;;;;;;5051918;28;20044;-67
2022/08/05 07:38:04;;;;;;;4.70;0.50;;;19.60;69.00;;;;;;5067178;28;20087;-66
2022/08/05 07:40:30;;;;;;;1.00;0.30;;;19.60;69.30;;;;;;5062027;28;20127;-67
2022/08/05 07:42:56;;;;;;;1.30;0.37;;;19.70;68.90;;;;;;5054684;28;20367;-67
2022/08/05 07:45:22;;;;;;;3.13;0.50;;;19.70;68.30;;;;;;5056975;28;20045;-66
2022/08/05 07:47:47;;;;;;;3.17;0.30;;;19.70;68.00;;;;;;5032971;28;20037;-66
2022/08/05 07:50:13;;;;;;;2.43;0.30;;;19.70;67.40;;;;;;5041029;28;20595;-66
2022/08/05 07:52:40;;;;;;;1.93;0.30;;;19.70;66.90;;;;;;5035892;28;20330;-66
2022/08/05 07:55:06;;;;;;;2.43;0.23;;;19.70;65.70;;;;;;5051955;28;20540;-66
2022/08/05 07:57:32;;;;;;;2.27;0.20;;;19.80;65.10;;;;;;5068274;28;20101;-67
2022/08/05 07:59:58;;;;;;;1.50;0.37;;;19.90;64.90;;;;;;5050082;28;20394;-67
2022/08/05 08:02:28;;;;;;;2.60;0.30;;;19.90;65.10;;;;;;5052794;28;20048;-67
2022/08/05 08:04:54;;;;;;;3.83;0.40;;;20.10;65.40;;;;;;5036097;28;20040;-67
2022/08/05 08:07:21;;;;;;;3.13;0.40;;;20.30;65.60;;;;;;5051693;28;20493;-67
2022/08/05 08:09:47;;;;;;;1.87;0.40;;;20.50;64.40;;;;;;5046981;28;20036;-67
2022/08/05 08:12:13;;;;;;;1.77;0.30;;;20.30;63.90;;;;;;5049789;28;20044;-66
2022/08/05 08:14:40;;;;;;;3.47;0.30;;;20.10;64.20;;;;;;5048225;28;20040;-66
2022/08/05 08:17:09;;;;;;;2.10;0.30;;;20.10;64.60;;;;;;5052670;28;20078;-66
2022/08/05 08:19:40;;;;;;;1.90;0.40;;;20.00;64.60;;;;;;5051058;28;20046;-67
2022/08/05 08:22:07;;;;;;;2.00;0.30;;;20.10;63.70;;;;;;5051890;28;20093;-66
2022/08/05 08:24:33;;;;;;;3.03;0.43;;;20.10;63.40;;;;;;5051721;28;20051;-66
2022/08/05 08:27:00;;;;;;;1.27;0.30;;;20.20;62.00;;;;;;5056639;28;20444;-67
2022/08/05 08:29:26;;;;;;;3.17;0.30;;;20.30;62.50;;;;;;5059364;28;20033;-66
2022/08/05 08:31:52;;;;;;;2.40;0.30;;;20.40;62.50;;;;;;5073613;28;20063;-67
2022/08/05 08:34:22;;;;;;;2.40;0.27;;;20.50;60.80;;;;;;5057742;28;20048;-67
2022/08/05 08:36:48;;;;;;;2.20;0.20;;;20.50;60.20;;;;;;5072181;28;20052;-67
2022/08/05 08:39:16;;;;;;;1.37;0.20;;;20.50;60.90;;;;;;5058062;28;20885;-67
2022/08/05 08:41:45;;;;;;;2.47;0.40;;;20.50;60.70;;;;;;5056804;28;20053;-67
2022/08/05 08:44:17;;;;;;;1.07;0.17;;;20.60;60.90;;;;;;5054895;28;20111;-67
2022/08/05 08:46:44;;;;;;;2.17;0.23;;;20.70;60.80;;;;;;5067884;28;20536;-67
2022/08/05 08:49:13;;;;;;;0.60;0.20;;;20.70;60.30;;;;;;5057508;28;20512;-68
2022/08/05 08:51:40;;;;;;;2.87;0.73;;;20.70;59.30;;;;;;5061337;28;20147;-67
2022/08/05 08:54:07;;;;;;;0.63;0.20;;;20.60;57.90;;;;;;5042256;28;20044;-67
2022/08/05 08:56:33;;;;;;;2.10;0.10;;;20.60;57.60;;;;;;5064808;28;20040;-67
2022/08/05 08:58:59;;;;;;;0.80;0.10;;;20.50;57.70;;;;;;5048675;28;20047;-67
2022/08/05 09:01:26;;;;;;;2.40;0.20;;;20.60;56.50;;;;;;5060522;28;20125;-67
2022/08/05 09:03:55;;;;;;;0.73;0.10;;;20.50;52.40;;;;;;5038759;28;20048;-67
2022/08/05 09:06:21;;;;;;;1.30;0.10;;;20.50;51.70;;;;;;5060620;28;20524;-67
2022/08/05 09:08:47;;;;;;;1.43;0.10;;;20.50;52.00;;;;;;5052126;28;20033;-67
2022/08/05 09:11:13;;;;;;;0.20;0.00;;;20.60;53.20;;;;;;5055328;28;20043;-67
2022/08/05 09:13:44;;;;;;;1.00;0.10;;;20.70;52.40;;;;;;5053720;28;20032;-67
2022/08/05 09:16:11;;;;;;;0.70;0.20;;;20.80;52.40;;;;;;5056166;28;20036;-67
2022/08/05 09:18:37;;;;;;;1.10;0.20;;;20.90;50.10;;;;;;5074664;28;20408;-67
2022/08/05 09:21:03;;;;;;;1.13;0.00;;;20.90;50.20;;;;;;5051909;28;20044;-67
2022/08/05 09:23:29;;;;;;;0.57;0.10;;;20.70;50.40;;;;;;5062176;28;20122;-67
2022/08/05 09:26:18;;;;;;;1.07;0.10;;;20.50;50.70;;;;;;5078170;28;20066;-67
2022/08/05 09:28:46;;;;;;;1.60;0.10;;;20.50;51.30;;;;;;5042738;28;20052;-67
2022/08/05 09:31:14;;;;;;;0.80;0.10;;;20.60;51.40;;;;;;5063430;28;20082;-67
2022/08/05 09:33:47;;;;;;;3.30;0.40;;;20.70;52.40;;;;;;5061414;28;20045;-67
2022/08/05 09:36:13;;;;;;;0.93;0.20;;;20.80;51.00;;;;;;5077632;28;20084;-67
2022/08/05 09:39:04;;;;;;;0.93;0.10;;;20.90;49.60;;;;;;5063181;28;20123;-67
2022/08/05 09:41:30;;;;;;;1.13;0.20;;;21.00;50.80;;;;;;5065792;28;20076;-67
2022/08/05 09:43:56;;;;;;;0.23;0.00;;;20.90;51.10;;;;;;5066375;28;20140;-67
2022/08/05 09:46:31;;;;;;;2.23;0.10;;;20.90;50.20;;;;;;5064823;28;20043;-67
2022/08/05 09:48:59;;;;;;;2.00;0.50;;;21.10;49.80;;;;;;5047846;28;20493;-67
2022/08/05 09:51:37;;;;;;;1.50;0.10;;;21.20;49.70;;;;;;5063804;28;20377;-67
2022/08/05 09:54:07;;;;;;;0.63;0.20;;;21.40;48.40;;;;;;5062713;28;20037;-67
2022/08/05 09:56:36;;;;;;;0.43;0.10;;;21.50;49.40;;;;;;5045212;28;20162;-67
2022/08/05 09:59:09;;;;;;;2.03;0.10;;;21.50;48.50;;;;;;5063271;28;20036;-67
2022/08/05 10:01:39;;;;;;;1.03;0.03;;;21.60;48.70;;;;;;5047459;28;20048;-67
2022/08/05 10:04:13;;;;;;;0.97;0.10;;;21.60;48.70;;;;;;5064652;28;20048;-66
2022/08/05 10:06:41;;;;;;;1.10;0.10;;;21.70;49.30;;;;;;5076804;28;20397;-66
2022/08/05 10:09:14;;;;;;;0.73;0.10;;;21.80;48.00;;;;;;5045111;28;20044;-66
2022/08/05 10:11:41;;;;;;;0.50;0.10;;;21.80;46.30;;;;;;5064986;28;20060;-66
2022/08/05 10:14:30;;;;;;;0.93;0.10;;;21.80;47.40;;;;;;5063603;28;20044;-66
2022/08/05 10:17:11;;;;;;;0.23;0.00;;;21.80;47.10;;;;;;5060293;28;20075;-66
2022/08/05 10:19:37;;;;;;;0.87;0.37;;;21.70;46.90;;;;;;5047841;28;20057;-66
2022/08/05 10:22:03;;;;;;;1.57;0.30;;;21.70;47.90;;;;;;5061472;28;20041;-66
2022/08/05 10:24:32;;;;;;;1.90;0.40;;;21.80;49.90;;;;;;5063537;28;20039;-67
2022/08/05 10:26:58;;;;;;;0.93;0.10;;;22.10;49.00;;;;;;5062368;28;20044;-67
2022/08/05 10:29:26;;;;;;;0.90;0.20;;;22.20;47.00;;;;;;5063036;28;20040;-66
2022/08/05 10:31:52;;;;;;;1.80;0.10;;;22.10;47.50;;;;;;5060264;28;20056;-66
2022/08/05 10:34:18;;;;;;;1.20;0.10;;;22.00;48.60;;;;;;5063632;28;20055;-66
2022/08/05 10:36:44;;;;;;;1.20;0.23;;;22.00;46.80;;;;;;5061253;28;20052;-66
2022/08/05 10:39:16;;;;;;;1.27;0.20;;;22.00;47.10;;;;;;5072194;28;20141;-66
2022/08/05 10:41:54;;;;;;;0.33;0.03;;;22.10;47.80;;;;;;5071254;28;20063;-67
2022/08/05 10:44:22;;;;;;;1.77;0.10;;;22.30;47.20;;;;;;5064081;28;20135;-66
2022/08/05 10:46:50;;;;;;;0.27;0.10;;;22.30;47.30;;;;;;5063609;28;20047;-66
2022/08/05 10:49:16;;;;;;;3.07;0.13;;;21.80;48.20;;;;;;5052703;28;20088;-67
2022/08/05 10:51:43;;;;;;;1.00;0.17;;;21.70;49.70;;;;;;5062461;28;20680;-66
2022/08/05 10:54:09;;;;;;;1.83;0.10;;;21.60;50.20;;;;;;5062913;28;20521;-66
2022/08/05 10:56:50;;;;;;;0.97;0.10;;;21.40;50.60;;;;;;5045095;28;20048;-67
2022/08/05 10:59:25;;;;;;;2.37;0.20;;;21.40;51.60;;;;;;5061869;28;20489;-67
2022/08/05 11:02:13;;;;;;;1.90;0.10;;;21.70;50.70;;;;;;5064081;28;20559;-66
2022/08/05 11:04:47;;;;;;;1.30;0.27;;;21.90;49.30;;;;;;5060613;28;20122;-66
2022/08/05 11:07:16;;;;;;;5.10;0.20;;;22.20;48.80;;;;;;5058005;28;20094;-66
2022/08/05 11:09:47;;;;;;;1.93;0.10;;;22.10;48.70;;;;;;5052670;28;20045;-66
2022/08/05 11:12:25;;;;;;;1.43;0.10;;;22.20;49.10;;;;;;5063402;28;20037;-66
2022/08/05 11:15:24;;;;;;;2.07;0.10;;;22.30;48.90;;;;;;5081390;28;20036;-67
2022/08/05 11:17:51;;;;;;;0.63;0.10;;;22.20;46.60;;;;;;5064435;28;20658;-67
2022/08/05 11:20:38;;;;;;;1.10;0.10;;;22.00;48.20;;;;;;5057792;28;20040;-67
2022/08/05 11:23:33;;;;;;;0.43;0.10;;;21.60;49.60;;;;;;5058501;28;20114;-67
2022/08/05 11:26:28;;;;;;;2.05;0.10;;;21.40;49.90;;;;;;5036934;28;20048;-67
2022/08/05 11:28:54;;;;;;;0.95;0.10;;;21.40;50.10;;;;;;5055030;28;20140;-67
2022/08/05 11:31:26;;;;;;;1.10;0.17;;;21.40;49.20;;;;;;5026031;28;20037;-67
2022/08/05 11:34:06;;;;;;;0.43;0.20;;;21.40;50.40;;;;;;5040077;28;20051;-67
2022/08/05 11:36:45;;;;;;;2.00;0.10;;;21.30;51.10;;;;;;5055886;28;20074;-66
2022/08/05 11:39:12;;;;;;;0.87;0.10;;;21.30;51.60;;;;;;5059164;28;20041;-66
2022/08/05 11:41:40;;;;;;;1.13;0.10;;;21.30;52.30;;;;;;5045541;28;20040;-67
2022/08/05 11:44:14;;;;;;;1.27;0.13;;;21.40;52.50;;;;;;5075495;28;20041;-66
2022/08/05 11:46:45;;;;;;;1.52;0.13;;;21.30;52.00;;;;;;5039177;28;20041;-66
2022/08/05 11:49:14;;;;;;;0.50;0.10;;;21.30;52.60;;;;;;5072443;28;20037;-66
2022/08/05 11:51:44;;;;;;;1.60;0.10;;;21.20;52.20;;;;;;5065044;28;20028;-66
2022/08/05 11:54:12;;;;;;;0.53;0.10;;;21.30;52.00;;;;;;5053537;28;20116;-66
2022/08/05 11:56:50;;;;;;;0.27;0.10;;;21.40;51.50;;;;;;5040257;28;20036;-66
2022/08/05 11:59:21;;;;;;;0.10;0.00;;;21.50;50.00;;;;;;5055898;28;20120;-66
2022/08/05 12:02:07;;;;;;;1.87;0.10;;;21.40;48.90;;;;;;5058698;28;20145;-66
2022/08/05 12:04:51;;;;;;;0.53;0.10;;;21.50;50.10;;;;;;5065527;28;20040;-66
2022/08/05 12:07:17;;;;;;;0.83;0.20;;;21.60;50.80;;;;;;5054164;28;20038;-67
2022/08/05 12:09:48;;;;;;;0.27;0.10;;;21.80;50.30;;;;;;5062180;28;20032;-66
2022/08/05 12:12:23;;;;;;;2.37;0.10;;;22.00;49.80;;;;;;5063161;28;20119;-66
2022/08/05 12:14:50;;;;;;;0.83;0.10;;;22.00;49.60;;;;;;5064821;28;20055;-67
2022/08/05 12:17:16;;;;;;;1.80;0.00;;;21.90;48.60;;;;;;5064897;28;20043;-66
2022/08/05 12:19:51;;;;;;;1.00;0.10;;;21.70;48.80;;;;;;5061818;28;20700;-67
2022/08/05 12:22:20;;;;;;;1.17;0.10;;;21.80;49.60;;;;;;5059211;28;20197;-66
2022/08/05 12:24:49;;;;;;;0.37;0.10;;;21.80;48.70;;;;;;5061750;28;20052;-66
2022/08/05 12:27:22;;;;;;;2.50;0.40;;;21.70;48.70;;;;;;5072273;28;20504;-66
2022/08/05 12:30:09;;;;;;;0.25;0.10;;;21.70;49.30;;;;;;5071787;28;20048;-66
2022/08/05 12:32:43;;;;;;;1.47;0.00;;;21.70;49.00;;;;;;5074121;28;20049;-66
2022/08/05 12:35:09;;;;;;;0.60;0.03;;;21.60;48.60;;;;;;5057684;28;20150;-66
2022/08/05 12:37:35;;;;;;;0.50;0.10;;;21.60;49.30;;;;;;5061001;28;20071;-66
2022/08/05 12:40:02;;;;;;;0.47;0.10;;;21.70;50.50;;;;;;5070755;28;20077;-66
2022/08/05 12:42:29;;;;;;;0.60;0.00;;;21.70;49.30;;;;;;5063351;28;20045;-66
2022/08/05 12:45:04;;;;;;;1.40;0.10;;;21.60;49.00;;;;;;5062807;28;20072;-66
2022/08/05 12:47:30;;;;;;;1.37;0.00;;;21.90;48.20;;;;;;5061110;28;20072;-66
2022/08/05 12:49:56;;;;;;;2.00;0.00;;;22.30;47.00;;;;;;5064910;28;20080;-66
2022/08/05 12:52:22;;;;;;;1.33;0.10;;;22.60;46.90;;;;;;5046947;28;20044;-66
2022/08/05 12:54:48;;;;;;;0.77;0.10;;;22.50;47.30;;;;;;5064072;28;20402;-66
2022/08/05 12:57:14;;;;;;;1.13;0.10;;;22.40;46.80;;;;;;5063034;28;20040;-66
2022/08/05 12:59:51;;;;;;;1.57;0.20;;;22.20;46.70;;;;;;5063186;28;20197;-66
2022/08/05 13:02:23;;;;;;;0.83;0.10;;;22.10;47.80;;;;;;5057294;28;20615;-66